Time;durP1;ratioP1;P1;durP2;ratioP2;P2;SDS_P1;SDS_P2;PMS_P1;PMS_P2;Temp;Humidity;BMP_temperature;BMP_pressure;BME280_temperature;BME280_humidity;BME280_pressure;Samples;Min_cycle;Max_cycle;Signal;HPM_P1;HPM_P2
2021/03/30 00:02:24;;;;;;;8.10;4.72;;;11.40;99.90;;;;;;5052846;28;20029;-46
2021/03/30 00:04:50;;;;;;;9.38;5.47;;;11.40;99.90;;;;;;5052835;28;20036;-46
2021/03/30 00:07:16;;;;;;;14.70;5.75;;;11.30;99.90;;;;;;5034607;28;20033;-46
2021/03/30 00:09:42;;;;;;;14.23;6.35;;;;;;;;;;5053108;28;20114;-46
2021/03/30 00:12:08;;;;;;;12.15;6.07;;;;;;;;;;5052671;28;20032;-46
2021/03/30 00:14:34;;;;;;;10.60;6.00;;;11.30;99.90;;;;;;5001934;28;20388;-46
2021/03/30 00:17:00;;;;;;;12.18;5.75;;;;;;;;;;5017991;28;20040;-46
2021/03/30 00:19:26;;;;;;;11.95;5.65;;;;;;;;;;5052657;28;20044;-46
2021/03/30 00:21:52;;;;;;;11.18;5.03;;;11.20;99.90;;;;;;5052879;28;20029;-46
2021/03/30 00:24:17;;;;;;;8.25;5.00;;;11.10;99.90;;;;;;5052711;28;20036;-46
2021/03/30 00:26:43;;;;;;;14.85;7.38;;;;;;;;;;5052678;28;20521;-46
2021/03/30 00:29:09;;;;;;;12.00;5.93;;;;;;;;;;5052704;28;20033;-46
2021/03/30 00:31:36;;;;;;;11.18;5.20;;;;;;;;;;5052932;28;20029;-46
2021/03/30 00:34:02;;;;;;;10.68;6.45;;;;;;;;;;5052635;28;20434;-46
2021/03/30 00:36:28;;;;;;;14.68;6.30;;;11.00;99.90;;;;;;5003858;28;20037;-46
2021/03/30 00:38:53;;;;;;;10.13;5.38;;;11.00;99.90;;;;;;5020888;28;20060;-46
2021/03/30 00:41:19;;;;;;;12.77;5.90;;;10.90;99.90;;;;;;5056055;28;20484;-46
2021/03/30 00:43:45;;;;;;;15.23;7.25;;;10.90;99.90;;;;;;5016037;28;20049;-46
2021/03/30 00:46:16;;;;;;;14.43;7.03;;;10.90;99.90;;;;;;5036108;28;20068;-46
2021/03/30 00:48:46;;;;;;;16.13;7.75;;;10.80;99.90;;;;;;5036239;28;20068;-46
2021/03/30 00:51:12;;;;;;;18.27;7.55;;;10.90;99.90;;;;;;5035989;28;20421;-46
2021/03/30 00:53:38;;;;;;;13.00;6.78;;;10.90;99.90;;;;;;5036174;28;20156;-46
2021/03/30 00:56:04;;;;;;;16.75;7.93;;;10.80;99.90;;;;;;5035681;28;20623;-46
2021/03/30 00:58:30;;;;;;;13.35;7.63;;;10.80;99.90;;;;;;5035707;28;20450;-46
2021/03/30 01:00:56;;;;;;;11.52;5.90;;;10.50;99.90;;;;;;4985073;28;20098;-46
2021/03/30 01:03:22;;;;;;;11.85;6.18;;;10.00;99.90;;;;;;5001133;28;20083;-46
2021/03/30 01:05:48;;;;;;;15.05;6.53;;;;;;;;;;4985080;28;20041;-46
2021/03/30 01:08:26;;;;;;;8.02;4.82;;;9.60;99.90;;;;;;5035733;28;20021;-46
2021/03/30 01:10:56;;;;;;;11.55;4.70;;;9.70;99.90;;;;;;5035717;28;20025;-46
2021/03/30 01:13:40;;;;;;;15.60;5.78;;;9.70;99.90;;;;;;5035654;28;20547;-47
2021/03/30 01:16:11;;;;;;;10.07;4.70;;;9.80;99.90;;;;;;5035674;28;20033;-46
2021/03/30 01:18:43;;;;;;;7.90;4.53;;;;;;;;;;5035499;28;20065;-46
2021/03/30 01:21:19;;;;;;;12.52;4.55;;;;;;;;;;5035425;28;20048;-46
2021/03/30 01:24:06;;;;;;;11.10;5.10;;;9.50;99.90;;;;;;5035537;28;20540;-47
2021/03/30 01:26:43;;;;;;;50.83;20.20;;;9.50;99.90;;;;;;5035714;28;20441;-47
2021/03/30 01:29:39;;;;;;;76.18;26.15;;;9.70;99.90;;;;;;5035418;28;20021;-46
2021/03/30 01:32:14;;;;;;;38.42;15.80;;;9.80;99.90;;;;;;5035636;28;20018;-47
2021/03/30 01:34:43;;;;;;;12.40;5.95;;;9.80;99.90;;;;;;5034994;28;20366;-46
2021/03/30 01:37:11;;;;;;;8.35;4.18;;;9.40;99.90;;;;;;5035189;28;20038;-46
2021/03/30 01:39:38;;;;;;;6.72;3.50;;;9.10;99.90;;;;;;5034892;28;20477;-46
2021/03/30 01:42:05;;;;;;;5.28;3.55;;;;;;;;;;5000700;28;20034;-46
2021/03/30 01:44:32;;;;;;;7.95;3.95;;;;;;;;;;5010036;28;20049;-46
2021/03/30 01:47:00;;;;;;;6.95;3.65;;;;;;;;;;5054497;28;20082;-46
2021/03/30 01:49:27;;;;;;;6.88;2.97;;;8.80;99.90;;;;;;5054342;28;20029;-47
2021/03/30 01:51:54;;;;;;;11.30;3.80;;;8.50;99.90;;;;;;5054141;28;20032;-46
2021/03/30 01:54:21;;;;;;;8.13;3.67;;;;;;;;;;5019145;28;20373;-46
2021/03/30 01:56:48;;;;;;;5.68;3.35;;;8.30;99.90;;;;;;5039645;28;20079;-46
2021/03/30 01:59:16;;;;;;;9.75;3.50;;;8.40;99.90;;;;;;5053568;28;20409;-46
2021/03/30 02:01:45;;;;;;;5.60;3.22;;;8.30;99.90;;;;;;5055019;28;20035;-46
2021/03/30 02:04:12;;;;;;;6.78;3.58;;;;;;;;;;5055068;28;20037;-47
2021/03/30 02:06:40;;;;;;;6.60;2.95;;;7.80;99.90;;;;;;5054537;28;20416;-46
2021/03/30 02:09:13;;;;;;;7.75;3.17;;;;;;;;;;5054749;28;20484;-46
2021/03/30 02:11:46;;;;;;;6.15;3.15;;;;;;;;;;5054838;28;20120;-46
2021/03/30 02:14:13;;;;;;;8.25;3.13;;;;;;;;;;5054449;28;20480;-46
2021/03/30 02:16:50;;;;;;;5.55;3.17;;;;;;;;;;5054365;28;20096;-46
2021/03/30 02:19:36;;;;;;;5.22;3.00;;;;;;;;;;5054261;28;20033;-46
2021/03/30 02:22:10;;;;;;;8.65;3.55;;;;;;;;;;5054720;28;20025;-46
2021/03/30 02:24:38;;;;;;;5.75;3.33;;;;;;;;;;5054206;28;20025;-46
2021/03/30 02:27:07;;;;;;;5.80;3.22;;;;;;;;;;5019679;28;20166;-46
2021/03/30 02:29:34;;;;;;;7.10;3.20;;;8.30;99.90;;;;;;4970842;28;20036;-46
2021/03/30 02:32:02;;;;;;;12.45;5.13;;;;;;;;;;5054094;28;20036;-46
2021/03/30 02:34:29;;;;;;;16.23;6.75;;;;;;;;;;5053994;28;20029;-46
2021/03/30 02:36:57;;;;;;;10.07;4.30;;;8.70;99.90;;;;;;5054048;28;20131;-46
2021/03/30 02:39:24;;;;;;;6.88;3.50;;;8.80;99.90;;;;;;5053946;28;20037;-46
2021/03/30 02:41:50;;;;;;;14.98;5.25;;;;;;;;;;5053856;28;20052;-46
2021/03/30 02:44:19;;;;;;;29.65;9.52;;;;;;;;;;5011014;28;20045;-46
2021/03/30 02:46:46;;;;;;;28.67;9.27;;;9.30;99.90;;;;;;5033866;28;20034;-46
2021/03/30 02:49:14;;;;;;;13.80;6.57;;;9.40;99.90;;;;;;5033866;28;20116;-46
2021/03/30 02:51:41;;;;;;;15.80;6.15;;;9.40;99.90;;;;;;5033829;28;20032;-46
2021/03/30 02:54:10;;;;;;;12.30;5.68;;;9.50;99.90;;;;;;5015713;28;20033;-46
2021/03/30 02:56:37;;;;;;;10.82;4.93;;;9.40;99.90;;;;;;5033966;28;20025;-46
2021/03/30 02:59:03;;;;;;;11.90;6.45;;;9.60;99.90;;;;;;5032221;28;20132;-46
2021/03/30 03:01:31;;;;;;;15.82;6.57;;;9.60;99.90;;;;;;5033542;28;20021;-47
2021/03/30 03:04:01;;;;;;;15.18;5.80;;;9.70;99.90;;;;;;5013975;28;20389;-47
2021/03/30 03:06:28;;;;;;;11.07;4.40;;;9.60;99.90;;;;;;4937443;29;20043;-47
2021/03/30 03:08:55;;;;;;;10.30;3.50;;;9.70;99.90;;;;;;4921467;29;20046;-46
2021/03/30 03:11:21;;;;;;;8.30;3.97;;;9.70;99.90;;;;;;4953238;29;20046;-46
2021/03/30 03:13:49;;;;;;;9.57;3.60;;;;;;;;;;4953387;29;20036;-46
2021/03/30 03:16:16;;;;;;;7.53;3.30;;;;;;;;;;4953397;29;20075;-47
2021/03/30 03:18:43;;;;;;;10.82;4.57;;;;;;;;;;4953122;29;20042;-47
2021/03/30 03:21:09;;;;;;;7.72;3.90;;;10.00;99.90;;;;;;4953664;29;20495;-46
2021/03/30 03:23:39;;;;;;;7.70;3.67;;;10.00;99.90;;;;;;4952747;29;20035;-47
2021/03/30 03:26:14;;;;;;;7.07;3.47;;;10.10;99.90;;;;;;4953290;29;20055;-46
2021/03/30 03:28:44;;;;;;;5.90;3.30;;;;;;;;;;4953295;29;20511;-47
2021/03/30 03:31:11;;;;;;;7.88;3.25;;;10.10;99.90;;;;;;4953391;29;20126;-46
2021/03/30 03:33:37;;;;;;;9.70;4.13;;;10.00;99.90;;;;;;4953213;29;20036;-47
2021/03/30 03:36:10;;;;;;;8.98;4.65;;;10.10;99.90;;;;;;4914995;29;20036;-47
2021/03/30 03:38:38;;;;;;;7.22;4.68;;;10.10;99.90;;;;;;4940427;28;20058;-46
2021/03/30 03:41:06;;;;;;;9.23;5.13;;;10.10;99.90;;;;;;4972467;28;20190;-47
2021/03/30 03:43:32;;;;;;;8.55;4.35;;;10.10;99.90;;;;;;4973792;28;20027;-46
2021/03/30 03:45:58;;;;;;;10.25;4.45;;;10.10;99.90;;;;;;4991697;28;20039;-47
2021/03/30 03:48:24;;;;;;;10.82;5.05;;;10.20;99.90;;;;;;4992217;28;20038;-46
2021/03/30 03:50:52;;;;;;;13.05;5.90;;;10.20;99.90;;;;;;4992018;28;20043;-46
2021/03/30 03:53:19;;;;;;;9.80;5.30;;;10.20;99.90;;;;;;4975689;28;20125;-47
2021/03/30 03:55:50;;;;;;;11.90;5.20;;;10.10;99.90;;;;;;4991771;28;20096;-46
2021/03/30 03:58:22;;;;;;;10.07;5.70;;;10.20;99.90;;;;;;4993252;28;20034;-46
2021/03/30 04:00:48;;;;;;;10.98;5.18;;;10.10;99.90;;;;;;5010933;28;20045;-46
2021/03/30 04:03:23;;;;;;;10.43;5.20;;;10.10;99.90;;;;;;4978570;28;20057;-46
2021/03/30 04:06:08;;;;;;;10.23;5.70;;;;;;;;;;4947345;28;20030;-46
2021/03/30 04:08:35;;;;;;;10.68;5.25;;;10.30;99.90;;;;;;5053380;28;20115;-47
2021/03/30 04:11:04;;;;;;;11.23;5.50;;;10.10;99.90;;;;;;5018686;28;20130;-46
2021/03/30 04:13:32;;;;;;;11.90;5.20;;;10.20;99.90;;;;;;5021890;28;20057;-46
2021/03/30 04:16:02;;;;;;;13.77;6.47;;;10.20;99.90;;;;;;5056670;28;20035;-46
2021/03/30 04:18:28;;;;;;;11.05;5.82;;;10.20;99.90;;;;;;5056727;28;20041;-46
2021/03/30 04:20:55;;;;;;;13.35;6.05;;;10.30;99.90;;;;;;5056701;28;20090;-47
2021/03/30 04:23:24;;;;;;;10.10;5.10;;;10.30;99.90;;;;;;5056492;28;20522;-46
2021/03/30 04:25:51;;;;;;;10.30;4.80;;;10.30;99.90;;;;;;5056403;28;20037;-48
2021/03/30 04:28:18;;;;;;;7.45;4.55;;;10.30;99.90;;;;;;4993517;28;20033;-46
2021/03/30 04:30:43;;;;;;;9.75;5.30;;;10.30;99.90;;;;;;5020222;28;20045;-46
2021/03/30 04:33:09;;;;;;;16.25;6.30;;;10.30;99.90;;;;;;5021272;28;20369;-47
2021/03/30 04:35:35;;;;;;;26.77;8.10;;;10.30;99.90;;;;;;5005026;28;20457;-46
2021/03/30 04:38:01;;;;;;;21.92;7.65;;;10.40;99.90;;;;;;5056193;28;20029;-47
2021/03/30 04:40:27;;;;;;;23.45;9.18;;;10.50;99.90;;;;;;5005263;28;20047;-46
2021/03/30 04:42:52;;;;;;;8.07;4.80;;;10.30;99.90;;;;;;5004957;28;20098;-46
2021/03/30 04:45:18;;;;;;;7.13;4.32;;;9.90;99.90;;;;;;5055953;28;20499;-46
2021/03/30 04:47:44;;;;;;;8.77;5.03;;;9.50;99.90;;;;;;5056248;28;20025;-46
2021/03/30 04:50:10;;;;;;;7.32;4.03;;;8.90;99.90;;;;;;5056194;28;20033;-47
2021/03/30 04:52:37;;;;;;;6.50;4.43;;;;;;;;;;5021141;28;20076;-46
2021/03/30 04:55:04;;;;;;;9.20;4.88;;;;;;;;;;5055443;28;20040;-46
2021/03/30 04:57:29;;;;;;;10.55;5.40;;;8.40;99.90;;;;;;5055280;28;20040;-46
2021/03/30 04:59:55;;;;;;;9.00;4.43;;;8.50;99.90;;;;;;5055674;28;20119;-46
2021/03/30 05:02:21;;;;;;;5.70;3.75;;;8.50;99.90;;;;;;5055766;28;20032;-46
2021/03/30 05:04:48;;;;;;;7.13;3.10;;;8.40;99.90;;;;;;5054570;28;20480;-46
2021/03/30 05:07:14;;;;;;;3.42;2.58;;;8.50;99.90;;;;;;5019845;28;20099;-47
2021/03/30 05:09:40;;;;;;;4.95;3.10;;;8.60;99.90;;;;;;4988086;28;20150;-47
2021/03/30 05:12:06;;;;;;;16.40;11.95;;;;;;;;;;5055623;28;20380;-46
2021/03/30 05:14:32;;;;;;;6.82;4.43;;;8.30;99.90;;;;;;5005577;28;20484;-47
2021/03/30 05:16:58;;;;;;;7.78;3.63;;;8.30;99.90;;;;;;5055140;28;20075;-44
2021/03/30 05:19:24;;;;;;;9.88;4.90;;;8.50;99.90;;;;;;5055411;28;20037;-48
2021/03/30 05:21:49;;;;;;;13.27;6.45;;;8.70;99.90;;;;;;5055295;28;20082;-46
2021/03/30 05:24:16;;;;;;;21.48;11.80;;;9.10;99.90;;;;;;5018945;28;20048;-46
2021/03/30 05:26:41;;;;;;;29.40;13.07;;;9.30;99.90;;;;;;5002737;28;20091;-47
2021/03/30 05:29:07;;;;;;;28.60;12.65;;;9.50;99.90;;;;;;5055294;28;20037;-47
2021/03/30 05:31:33;;;;;;;9.32;5.53;;;9.60;99.90;;;;;;5055354;28;20063;-47
2021/03/30 05:33:59;;;;;;;10.18;4.85;;;9.60;99.90;;;;;;5054222;28;20047;-47
2021/03/30 05:36:24;;;;;;;9.65;5.88;;;9.80;99.90;;;;;;5055135;28;20036;-47
2021/03/30 05:38:50;;;;;;;7.82;4.30;;;10.00;99.90;;;;;;5036852;28;20555;-47
2021/03/30 05:41:16;;;;;;;9.45;4.93;;;10.10;99.90;;;;;;5018662;28;20087;-47
2021/03/30 05:43:42;;;;;;;15.50;5.90;;;10.40;99.90;;;;;;5054760;28;20041;-41
2021/03/30 05:46:09;;;;;;;21.75;9.73;;;;;;;;;;5051468;28;20079;-48
2021/03/30 05:48:36;;;;;;;17.25;9.38;;;11.20;99.90;;;;;;5055046;28;20090;-49
2021/03/30 05:51:02;;;;;;;13.32;6.47;;;;;;;;;;5054812;28;20032;-49
2021/03/30 05:53:29;;;;;;;11.02;5.93;;;11.80;99.90;;;;;;5054605;28;20029;-49
2021/03/30 05:56:00;;;;;;;11.55;6.07;;;;;;;;;;5019070;28;20041;-48
2021/03/30 05:58:33;;;;;;;11.90;4.60;;;12.90;99.90;;;;;;5043113;28;20025;-49
2021/03/30 06:01:05;;;;;;;7.25;4.70;;;12.40;99.90;;;;;;5042773;28;20449;-48
2021/03/30 06:03:32;;;;;;;7.38;5.00;;;;;;;;;;4986699;28;20412;-48
2021/03/30 06:05:59;;;;;;;9.13;4.95;;;;;;;;;;5054511;28;20029;-49
2021/03/30 06:08:27;;;;;;;12.65;6.53;;;;;;;;;;5054390;28;20027;-49
2021/03/30 06:10:55;;;;;;;11.80;7.00;;;13.00;99.90;;;;;;5003237;28;20037;-49
2021/03/30 06:13:40;;;;;;;18.50;10.07;;;;;;;;;;5054377;28;20036;-50
2021/03/30 06:16:39;;;;;;;18.40;11.23;;;13.20;99.90;;;;;;5018908;28;20124;-48
2021/03/30 06:19:08;;;;;;;18.20;8.52;;;13.40;99.90;;;;;;5054345;28;20037;-50
2021/03/30 06:21:36;;;;;;;9.13;5.25;;;;;;;;;;5054182;28;20025;-48
2021/03/30 06:24:02;;;;;;;9.82;5.53;;;;;;;;;;5054241;28;20095;-48
2021/03/30 06:26:28;;;;;;;10.15;4.88;;;;;;;;;;5054081;28;20028;-48
2021/03/30 06:28:55;;;;;;;12.48;7.40;;;;;;;;;;5054134;28;20492;-48
2021/03/30 06:31:21;;;;;;;21.17;9.77;;;;;;;;;;5053946;28;20029;-48
2021/03/30 06:33:54;;;;;;;26.38;12.93;;;14.10;99.90;;;;;;5018341;28;20108;-48
2021/03/30 06:36:32;;;;;;;20.27;8.63;;;14.00;99.90;;;;;;5053938;28;20479;-48
2021/03/30 06:39:02;;;;;;;16.27;6.90;;;13.90;99.90;;;;;;5053979;28;20059;-48
2021/03/30 06:41:58;;;;;;;10.05;6.10;;;13.90;99.90;;;;;;5053918;28;20028;-48
2021/03/30 06:44:26;;;;;;;13.30;5.88;;;14.00;99.90;;;;;;5052270;28;20052;-48
2021/03/30 06:46:58;;;;;;;9.88;4.75;;;13.90;99.90;;;;;;5053887;28;20044;-47
2021/03/30 06:49:27;;;;;;;7.63;4.32;;;14.00;99.90;;;;;;5018688;28;20120;-48
2021/03/30 06:51:54;;;;;;;6.97;3.33;;;;;;;;;;5018213;28;20102;-48
2021/03/30 06:54:20;;;;;;;8.15;4.00;;;;;;;;;;5053700;28;20029;-48
2021/03/30 06:57:04;;;;;;;4.53;3.17;;;;;;;;;;5053542;28;20043;-48
2021/03/30 06:59:41;;;;;;;7.60;3.40;;;;;;;;;;5053311;28;20033;-48
2021/03/30 07:02:07;;;;;;;4.20;2.88;;;15.00;99.90;;;;;;5053623;28;20494;-47
2021/03/30 07:04:33;;;;;;;5.45;2.95;;;14.80;99.90;;;;;;5018260;28;20040;-48
2021/03/30 07:06:59;;;;;;;5.00;2.88;;;;;;;;;;5018205;28;20041;-47
2021/03/30 07:09:26;;;;;;;6.10;3.50;;;;;;;;;;5053759;28;20029;-47
2021/03/30 07:11:52;;;;;;;7.22;3.47;;;;;;;;;;5053324;28;20037;-48
2021/03/30 07:14:18;;;;;;;6.68;3.17;;;14.70;99.90;;;;;;5053197;28;20031;-48
2021/03/30 07:16:53;;;;;;;7.13;3.70;;;14.90;99.90;;;;;;5053481;28;20050;-48
2021/03/30 07:19:23;;;;;;;7.30;4.03;;;15.00;99.90;;;;;;5053257;28;20115;-48
2021/03/30 07:22:07;;;;;;;6.00;3.53;;;15.10;99.90;;;;;;5049945;28;20025;-48
2021/03/30 07:24:48;;;;;;;4.85;3.33;;;15.30;99.90;;;;;;5053267;28;20373;-49
2021/03/30 07:27:19;;;;;;;7.10;4.10;;;15.00;99.90;;;;;;5053422;28;20439;-48
2021/03/30 07:29:46;;;;;;;6.78;3.97;;;;;;;;;;5052905;28;20021;-47
2021/03/30 07:32:23;;;;;;;7.63;4.18;;;15.30;99.90;;;;;;5053419;28;20036;-48
2021/03/30 07:34:52;;;;;;;10.18;4.78;;;;;;;;;;5053135;28;20490;-48
2021/03/30 07:37:40;;;;;;;7.10;3.75;;;15.90;99.90;;;;;;5052916;28;20029;-47
2021/03/30 07:40:09;;;;;;;7.13;3.80;;;15.70;99.90;;;;;;5053038;28;20447;-48
2021/03/30 07:42:39;;;;;;;10.45;7.38;;;15.90;99.90;;;;;;5053043;28;20033;-48
2021/03/30 07:45:06;;;;;;;5.85;4.18;;;15.90;99.90;;;;;;5052703;28;20057;-48
2021/03/30 07:47:34;;;;;;;9.75;5.15;;;;;;;;;;5055981;28;20108;-48
2021/03/30 07:50:00;;;;;;;9.15;5.53;;;;;;;;;;5057338;28;20025;-48
2021/03/30 07:52:30;;;;;;;9.38;5.28;;;;;;;;;;5056829;28;20074;-48
2021/03/30 07:55:15;;;;;;;10.95;5.90;;;;;;;;;;5056900;28;20029;-48
2021/03/30 07:58:00;;;;;;;9.63;5.60;;;;;;;;;;5056952;28;20361;-48
2021/03/30 08:19:24;;;;;;;10.43;6.38;;;;;;;;;;5108223;27;20186;-46
2021/03/30 08:22:05;;;;;;;10.63;5.50;;;16.50;99.80;;;;;;5089664;28;20089;-46
2021/03/30 08:24:46;;;;;;;8.85;4.75;;;16.40;99.50;;;;;;5088791;28;20025;-46
2021/03/30 08:27:32;;;;;;;9.13;4.70;;;16.50;99.30;;;;;;5070288;28;20041;-46
2021/03/30 08:30:03;;;;;;;6.70;4.57;;;16.50;99.20;;;;;;5046035;28;20043;-47
2021/03/30 08:32:31;;;;;;;7.68;4.10;;;16.40;99.30;;;;;;5022418;28;20036;-46
2021/03/30 08:34:57;;;;;;;7.75;4.40;;;16.10;97.90;;;;;;5068950;28;20051;-47
2021/03/30 08:37:23;;;;;;;6.28;4.03;;;;;;;;;;5036564;28;20036;-47
2021/03/30 08:39:50;;;;;;;6.93;4.20;;;16.00;99.90;;;;;;5090450;28;20492;-47
2021/03/30 08:42:18;;;;;;;7.30;3.47;;;16.00;99.90;;;;;;5090496;28;20077;-46
2021/03/30 08:44:45;;;;;;;9.18;4.78;;;16.10;99.90;;;;;;5089086;28;20070;-46
2021/03/30 08:47:25;;;;;;;11.68;4.25;;;;;;;;;;5090589;28;20032;-47
2021/03/30 08:49:50;;;;;;;19.00;8.52;;;15.50;96.90;;;;;;5090375;28;20467;-46
2021/03/30 08:52:18;;;;;;;19.85;8.40;;;15.50;98.20;;;;;;5071745;28;20036;-47
2021/03/30 08:55:05;;;;;;;17.00;6.80;;;15.50;97.90;;;;;;5090572;28;20035;-46
2021/03/30 08:57:39;;;;;;;5.85;3.72;;;15.60;97.50;;;;;;5090573;28;20062;-46
2021/03/30 09:00:07;;;;;;;25.42;9.88;;;15.50;97.60;;;;;;5090524;28;20054;-47
2021/03/30 09:02:33;;;;;;;13.07;5.90;;;15.70;98.20;;;;;;5090141;28;20027;-47
2021/03/30 09:04:59;;;;;;;7.32;3.95;;;15.80;97.90;;;;;;5071517;28;20028;-47
2021/03/30 09:07:25;;;;;;;15.80;6.55;;;15.80;98.00;;;;;;5071357;28;20036;-47
2021/03/30 09:10:04;;;;;;;14.45;6.65;;;15.80;98.10;;;;;;5090243;28;20047;-47
2021/03/30 09:12:29;;;;;;;17.77;7.38;;;15.80;98.00;;;;;;5021778;28;20033;-47
2021/03/30 09:15:04;;;;;;;15.65;7.57;;;15.40;98.00;;;;;;5087253;28;20425;-47
2021/03/30 09:17:30;;;;;;;12.60;5.68;;;15.50;98.90;;;;;;5054329;28;20085;-46
2021/03/30 09:19:56;;;;;;;7.90;5.20;;;15.40;98.50;;;;;;5077216;28;20032;-44
2021/03/30 09:22:26;;;;;;;11.02;5.15;;;15.60;98.60;;;;;;5057704;28;20166;-45
2021/03/30 09:27:30;;;;;;;8.90;4.40;;;15.40;97.40;;;;;;5076091;28;20391;-45
2021/03/30 09:30:00;;;;;;;7.22;4.32;;;15.50;98.60;;;;;;5076188;28;20062;-42
2021/03/30 09:32:27;;;;;;;9.60;5.15;;;15.80;98.10;;;;;;5057614;28;20550;-47
2021/03/30 09:35:01;;;;;;;8.57;4.00;;;15.80;99.10;;;;;;5076025;28;20100;-46
2021/03/30 09:37:33;;;;;;;8.30;3.85;;;16.00;97.70;;;;;;5076120;28;20020;-47
2021/03/30 09:40:05;;;;;;;7.57;4.15;;;16.00;97.50;;;;;;5076062;28;20025;-46
2021/03/30 09:42:31;;;;;;;8.18;5.03;;;16.00;97.70;;;;;;5040801;28;20029;-48
2021/03/30 09:44:57;;;;;;;7.35;4.82;;;16.10;98.30;;;;;;5075764;28;20533;-46
2021/03/30 09:47:23;;;;;;;7.72;4.65;;;16.00;97.80;;;;;;5075680;28;20033;-47
2021/03/30 09:49:49;;;;;;;11.20;5.20;;;15.70;98.50;;;;;;5074512;28;20447;-46
2021/03/30 09:52:15;;;;;;;7.63;4.85;;;15.90;98.90;;;;;;5019891;28;20131;-45
2021/03/30 09:54:43;;;;;;;11.02;5.97;;;15.90;98.50;;;;;;5044762;28;20123;-48
2021/03/30 09:57:14;;;;;;;10.77;5.47;;;16.00;99.70;;;;;;5044082;28;20352;-47
2021/03/30 09:59:48;;;;;;;11.33;5.43;;;16.20;99.00;;;;;;5075456;28;20398;-47
2021/03/30 10:02:16;;;;;;;9.40;4.85;;;16.20;98.40;;;;;;5075436;28;20766;-46
2021/03/30 10:04:42;;;;;;;9.73;4.93;;;15.90;98.40;;;;;;5075165;28;20117;-47
2021/03/30 10:07:16;;;;;;;7.95;4.45;;;16.10;98.50;;;;;;5071725;28;20636;-46
2021/03/30 10:10:02;;;;;;;8.07;5.55;;;16.20;98.80;;;;;;5037017;28;20399;-49
2021/03/30 10:12:34;;;;;;;8.32;5.30;;;16.20;98.70;;;;;;5072330;28;20033;-48
2021/03/30 10:15:00;;;;;;;;;;;16.20;98.50;;;;;;5075512;28;20067;-49
2021/03/30 10:17:29;;;;;;;13.43;6.35;;;16.30;98.90;;;;;;5074466;28;20498;-49
2021/03/30 10:19:56;;;;;;;11.25;5.13;;;16.40;99.90;;;;;;5075020;28;20598;-49
2021/03/30 10:22:28;;;;;;;6.65;4.53;;;16.20;98.70;;;;;;5075021;28;20467;-48
2021/03/30 10:25:17;;;;;;;8.18;4.85;;;16.40;99.00;;;;;;5074948;28;20032;-48
2021/03/30 10:27:58;;;;;;;6.05;4.10;;;16.50;99.00;;;;;;5066167;28;20399;-49
2021/03/30 10:30:44;;;;;;;11.07;4.70;;;16.20;98.80;;;;;;5070500;28;20486;-49
2021/03/30 10:33:15;;;;;;;7.35;5.00;;;16.60;99.90;;;;;;5073646;28;20550;-48
2021/03/30 10:35:41;;;;;;;7.65;5.00;;;16.90;99.90;;;;;;5074570;28;20039;-48
2021/03/30 10:38:08;;;;;;;9.23;5.25;;;17.10;99.90;;;;;;5073292;28;20148;-49
2021/03/30 10:40:39;;;;;;;13.27;5.88;;;17.00;99.50;;;;;;5072521;28;20032;-49
2021/03/30 10:43:21;;;;;;;8.75;3.95;;;;;;;;;;5055893;28;20035;-48
2021/03/30 10:45:47;;;;;;;;;;;17.40;99.90;;;;;;5075004;28;20025;-49
2021/03/30 10:48:13;;;;;;;6.05;4.00;;;17.50;98.50;;;;;;5074226;28;20408;-50
2021/03/30 10:50:39;;;;;;;7.82;4.68;;;17.40;97.60;;;;;;5074393;28;20020;-48
2021/03/30 10:53:06;;;;;;;11.65;5.28;;;17.40;97.40;;;;;;5074477;28;20047;-51
2021/03/30 10:55:33;;;;;;;7.30;4.72;;;;;;;;;;5055519;28;20043;-50
2021/03/30 10:58:00;;;;;;;7.32;4.50;;;17.90;98.60;;;;;;5073996;28;20479;-47
2021/03/30 11:00:26;;;;;;;7.15;4.20;;;17.70;96.20;;;;;;5071962;28;20044;-48
2021/03/30 11:02:54;;;;;;;7.72;4.57;;;17.60;96.80;;;;;;5055094;28;20040;-48
2021/03/30 11:05:19;;;;;;;7.45;4.07;;;17.90;96.40;;;;;;5055832;28;20040;-48
2021/03/30 11:07:45;;;;;;;16.15;8.27;;;18.10;97.50;;;;;;5055095;28;20060;-50
2021/03/30 11:10:12;;;;;;;8.45;4.03;;;;;;;;;;5073913;28;20101;-49
2021/03/30 11:12:39;;;;;;;6.35;3.70;;;18.10;99.90;;;;;;5073947;28;20107;-48
2021/03/30 11:15:07;;;;;;;6.55;3.95;;;18.10;99.90;;;;;;5073874;28;20536;-50
2021/03/30 11:17:33;;;;;;;6.15;3.42;;;18.00;99.90;;;;;;5038013;28;20045;-50
2021/03/30 11:19:59;;;;;;;9.98;3.60;;;18.10;99.90;;;;;;5073944;28;20031;-50
2021/03/30 11:22:25;;;;;;;6.35;2.92;;;;;;;;;;5071893;28;20032;-47
2021/03/30 11:25:00;;;;;;;5.63;2.78;;;;;;;;;;5073633;28;20051;-50
2021/03/30 11:27:29;;;;;;;6.20;3.20;;;;;;;;;;5073731;28;20037;-50
2021/03/30 11:30:13;;;;;;;12.77;5.55;;;;;;;;;;5055388;28;20048;-49
2021/03/30 11:35:47;;;;;;;7.03;3.30;;;;;;;;;;5031306;28;20083;-49
2021/03/30 11:38:13;;;;;;;8.13;3.50;;;;;;;;;;5031558;28;20030;-48
2021/03/30 11:40:40;;;;;;;4.20;2.58;;;;;;;;;;5031240;28;20037;-50
2021/03/30 11:43:07;;;;;;;4.90;2.47;;;;;;;;;;5047581;28;20083;-49
2021/03/30 11:45:33;;;;;;;10.48;5.20;;;;;;;;;;5031418;28;20065;-50
2021/03/30 11:48:00;;;;;;;8.48;2.70;;;;;;;;;;5047397;28;20087;-50
2021/03/30 11:50:26;;;;;;;7.22;3.75;;;;;;;;;;5031205;28;20033;-49
2021/03/30 11:52:53;;;;;;;5.28;2.42;;;;;;;;;;5031055;28;20037;-50
2021/03/30 11:55:18;;;;;;;5.60;2.42;;;19.00;99.90;;;;;;4998050;28;20076;-50
2021/03/30 11:57:44;;;;;;;5.35;3.60;;;19.00;92.80;;;;;;5014613;28;20044;-49
2021/03/30 12:00:11;;;;;;;4.93;3.33;;;18.90;92.80;;;;;;5031107;28;20416;-49
2021/03/30 12:02:37;;;;;;;4.18;2.42;;;19.10;93.40;;;;;;5014339;28;20500;-49
2021/03/30 12:05:04;;;;;;;4.15;2.38;;;19.70;93.20;;;;;;5031078;28;20036;-47
2021/03/30 12:07:30;;;;;;;5.25;2.70;;;;;;;;;;5014502;28;20091;-48
2021/03/30 12:09:57;;;;;;;8.60;4.15;;;;;;;;;;5030819;28;20029;-48
2021/03/30 12:12:23;;;;;;;4.72;2.30;;;;;;;;;;5050828;28;20040;-50
2021/03/30 12:14:50;;;;;;;3.50;2.20;;;19.70;99.90;;;;;;5071365;28;20037;-50
2021/03/30 12:17:15;;;;;;;11.05;6.07;;;20.30;91.10;;;;;;5072466;28;20067;-50
2021/03/30 12:19:41;;;;;;;2.35;1.85;;;19.90;90.30;;;;;;5072092;28;20105;-47
2021/03/30 12:22:07;;;;;;;11.93;5.40;;;19.80;90.70;;;;;;5072928;28;20028;-49
2021/03/30 12:24:33;;;;;;;10.43;5.95;;;20.00;90.60;;;;;;5054252;28;20481;-48
2021/03/30 12:26:59;;;;;;;4.78;2.85;;;;;;;;;;5070585;28;20039;-49
2021/03/30 12:29:25;;;;;;;12.85;7.95;;;;;;;;;;5071304;28;20056;-50
2021/03/30 12:31:51;;;;;;;4.75;2.70;;;21.50;85.20;;;;;;5073026;28;20096;-47
2021/03/30 12:34:17;;;;;;;4.65;2.70;;;21.60;97.10;;;;;;5073118;28;20025;-49
2021/03/30 12:36:43;;;;;;;6.88;2.45;;;21.30;98.10;;;;;;5072958;28;20052;-49
2021/03/30 12:39:10;;;;;;;6.03;2.67;;;21.30;99.50;;;;;;5072720;28;20029;-50
2021/03/30 12:41:36;;;;;;;5.25;3.00;;;20.70;99.10;;;;;;5073210;28;20082;-50
2021/03/30 12:44:02;;;;;;;3.50;2.05;;;21.00;94.30;;;;;;5072824;28;20430;-52
2021/03/30 12:46:28;;;;;;;3.47;2.08;;;21.00;93.90;;;;;;5025349;28;20037;-50
2021/03/30 12:48:54;;;;;;;4.70;2.58;;;21.10;93.80;;;;;;5052711;28;20555;-49
2021/03/30 12:51:20;;;;;;;8.75;2.67;;;21.30;93.40;;;;;;5072992;28;20035;-49
2021/03/30 12:53:45;;;;;;;6.47;3.33;;;20.90;93.40;;;;;;5054422;28;20047;-48
2021/03/30 12:56:11;;;;;;;4.93;2.83;;;20.40;83.40;;;;;;5076754;28;20097;-48
2021/03/30 12:58:37;;;;;;;3.80;2.80;;;20.30;83.20;;;;;;5076883;28;20056;-48
2021/03/30 13:01:04;;;;;;;7.40;3.45;;;20.20;83.40;;;;;;5076341;28;20491;-50
2021/03/30 13:03:30;;;;;;;6.38;3.15;;;20.10;90.10;;;;;;5078721;28;20100;-48
2021/03/30 13:05:55;;;;;;;5.65;2.55;;;19.90;89.30;;;;;;5050470;28;20036;-49
2021/03/30 13:08:21;;;;;;;5.60;2.22;;;19.80;90.60;;;;;;5075910;28;20035;-48
2021/03/30 13:10:47;;;;;;;6.43;3.65;;;20.00;85.30;;;;;;5057784;28;20527;-50
2021/03/30 13:13:13;;;;;;;5.50;2.03;;;20.40;85.30;;;;;;5074302;28;20177;-50
2021/03/30 13:15:39;;;;;;;4.18;2.53;;;20.10;90.60;;;;;;5040248;28;20040;-48
2021/03/30 13:18:05;;;;;;;5.30;2.30;;;20.10;90.10;;;;;;5076059;28;20089;-49
2021/03/30 13:20:31;;;;;;;4.07;2.50;;;20.40;91.40;;;;;;5057649;28;20036;-49
2021/03/30 13:22:57;;;;;;;5.85;2.47;;;20.70;90.60;;;;;;5073938;28;20032;-45
2021/03/30 13:25:30;;;;;;;4.15;2.22;;;20.20;89.70;;;;;;5076491;28;20121;-48
2021/03/30 13:27:56;;;;;;;4.45;2.70;;;20.50;90.40;;;;;;5076034;28;20045;-48
2021/03/30 13:30:22;;;;;;;5.38;2.58;;;20.70;90.30;;;;;;5073836;28;20032;-47
2021/03/30 13:32:48;;;;;;;7.15;2.20;;;20.90;94.40;;;;;;5035378;28;20048;-48
2021/03/30 13:35:14;;;;;;;3.95;2.20;;;21.10;84.00;;;;;;5075508;28;20027;-49
2021/03/30 13:37:40;;;;;;;4.25;2.20;;;20.60;81.30;;;;;;5049327;28;20100;-48
2021/03/30 13:40:07;;;;;;;8.10;3.38;;;;;;;;;;5025917;28;20037;-49
2021/03/30 13:42:32;;;;;;;4.85;2.30;;;21.50;90.50;;;;;;5036799;28;20041;-48
2021/03/30 13:44:59;;;;;;;8.45;2.70;;;21.80;93.10;;;;;;5056305;28;20337;-51
2021/03/30 13:47:25;;;;;;;4.90;2.30;;;;;;;;;;5038830;28;20095;-47